KCAO/CAO METAR and TAF weather

Enter ICAO airport designator
Station Type Date Time Source
KCAO METAR 2023/09/28 17:55 UTC NOAA

KCAO 281755Z AUTO 19017G23KT 10SM CLR 29/09 A3003 RMK AO2 SLP097 T02940089 10294 20144 58006


Station Type Date Time Source
KCAO Decoded METAR 2023/09/28 17:55 UTC NOAA

CLAYTON MUNICIPAL AIRPARK, NM, United States (KCAO) 36-27N 103-09W 1514M
Sep 28, 2023 - 01:55 PM EDT / 2023.09.28 1755 UTC
Wind: from the S (190 degrees) at 20 MPH (17 KT) gusting to 26 MPH (23 KT):0
Visibility: 10 mile(s):0
Sky conditions: clear
Temperature: 84.9 F (29.4 C)
Dew Point: 48.0 F (8.9 C)
Relative Humidity: 27%
Pressure (altimeter): 30.03 in. Hg (1016 hPa)
Pressure tendency: 0.02 inches (0.6 hPa) lower than three hours ago
ob: KCAO 281755Z AUTO 19017G23KT 10SM CLR 29/09 A3003 RMK AO2 SLP097 T02940089 10294 20144 58006
cycle: 18

Station Type Date Time Source
KCAO TAF UTC NOAA

Error!

Example: see airport list